Latest Coastal Weather Observations for Friendly Beaches

IDT60701

Issued at 12:05 pm EST Sunday 21 September 2014 (issued every 10 minutes, with the page automatically refreshed every 10 minutes)

About coastal observations | Map of coastal stations | Coastal observations for TAS | Marine services | Other Formats
Station Details ID: 092114 Name: FRIENDLY BEACHES Lat: -42.00 Lon: 148.28 Height: 55.0 m
Data from the previous 72 hours. | See also: Recent months at Friendly Beaches
Date/Time
EST
Temp

°C
Wind Pressure Rain
since 9am
mm
Weather Cloud Vis
km
Sea
Height
m
Swell
Dir
 
Speed
knots
Gust
knots
hPa Trend Height
m
Period
s
Dir
21/12:00pm 18.7 NE 6 10 1025.9 - 0.0 - - - - - - -
21/11:30am 18.9 SSW 4 9 1026.2 - 0.0 - - - - - - -
21/11:00am 18.0 W 6 10 1026.3 - 0.0 - - - - - - -
21/10:30am 17.7 W 7 10 1026.5 - 0.0 - - - - - - -
21/10:00am 16.6 WSW 7 12 1026.5 - 0.0 - - - - - - -
21/09:30am 15.9 WSW 5 9 1026.5 - 0.0 - - - - - - -
21/09:00am 14.8 W 5 10 1026.3 - 0.0 - - - - - - -
21/08:30am 13.6 W 3 6 1026.2 - 0.0 - - - - - - -
21/08:00am 12.4 W 2 4 1026.0 - 0.0 - - - - - - -
21/07:30am 11.3 WNW 4 7 1025.7 - 0.0 - - - - - - -
21/07:00am 10.0 WNW 5 8 1025.7 - 0.0 - - - - - - -
21/06:30am 8.8 W 4 7 1025.6 - 0.0 - - - - - - -
21/06:00am 8.3 WNW 4 7 1025.5 - 0.0 - - - - - - -
21/05:30am 7.8 W 5 7 1025.1 - 0.0 - - - - - - -
21/05:00am 7.9 W 8 11 1024.8 - 0.0 - - - - - - -
21/04:30am 7.9 WNW 3 5 1024.9 - 0.0 - - - - - - -
21/04:00am 8.0 WNW 6 8 1025.0 - 0.0 - - - - - - -
21/03:30am 7.6 W 6 7 1025.2 - 0.0 - - - - - - -
21/03:00am 7.6 W 5 6 1025.5 - 0.0 - - - - - - -
21/02:30am 7.9 W 4 7 1025.5 - 0.0 - - - - - - -
21/02:00am 8.2 WSW 5 8 1025.2 - 0.0 - - - - - - -
21/01:30am 8.4 W 5 9 1025.1 - 0.0 - - - - - - -
21/01:00am 7.8 WNW 5 7 1025.4 - 0.0 - - - - - - -
21/12:30am 7.8 W 5 7 1025.5 - 0.0 - - - - - - -
21/12:00am 8.3 W 4 7 1025.7 - 0.0 - - - - - - -
 
Date/Time
EST
Temp

°C
Wind Pressure Rain
since 9am
mm
Weather Cloud Vis
km
Sea
Height
m
Swell
Dir
 
Speed
knots
Gust
knots
hPa Trend Height
m
Period
s
Dir
20/11:30pm 8.1 WNW 3 4 1026.0 - 0.0 - - - - - - -
20/11:00pm 8.1 W 3 6 1026.0 - 0.0 - - - - - - -
20/10:30pm 8.1 WSW 5 7 1025.8 - 0.0 - - - - - - -
20/10:00pm 8.3 W 4 5 1025.8 - 0.0 - - - - - - -
20/09:30pm 8.7 W 3 4 1025.9 - 0.0 - - - - - - -
20/09:00pm 9.1 W 4 5 1025.6 - 0.0 - - - - - - -
20/08:30pm 9.2 W 5 7 1025.4 - 0.0 - - - - - - -
20/08:00pm 9.7 W 6 8 1024.9 - 0.0 - - - - - - -
20/07:30pm 9.7 W 3 4 1024.5 - 0.0 - - - - - - -
20/07:00pm 10.4 NNW 4 6 1024.3 - 0.0 - - - - - - -
20/06:30pm 10.7 NNW 5 7 1024.3 - 0.0 - - - - - - -
20/06:00pm 11.0 N 3 5 1024.0 - 0.0 - - - - - - -
20/05:30pm 12.0 N 5 7 1023.8 - 0.0 - - - - - - -
20/05:00pm 13.5 NNE 6 8 1023.5 - 0.0 - - - - - - -
20/04:30pm 14.9 NE 5 8 1023.4 - 0.0 - - - - - - -
20/04:00pm 15.1 NE 5 8 1023.1 - 0.0 - - - - - - -
20/03:30pm 15.2 ENE 6 8 1023.0 - 0.0 - - - - - - -
20/03:00pm 14.0 ENE 6 9 1022.8 - 0.0 - - - - - - -
20/02:30pm 14.7 ENE 6 9 1023.0 - 0.0 - - - - - - -
20/02:00pm 15.4 ENE 6 9 1022.6 - 0.0 - - - - - - -
20/01:30pm 14.8 E 7 9 1022.7 - 0.0 - - - - - - -
20/01:00pm 14.5 E 7 9 1022.6 - 0.0 - - - - - - -
20/12:30pm 15.9 E 7 9 1022.5 - 0.0 - - - - - - -
20/12:00pm 16.3 SE 7 10 1022.7 - 0.0 - - - - - - -
20/11:30am 16.1 ESE 7 9 1022.6 - 0.0 - - - - - - -
20/11:00am 16.6 S 6 10 1022.5 - 0.0 - - - - - - -
20/10:30am 16.1 WSW 4 9 1022.6 - 0.0 - - - - - - -
20/10:00am 15.4 SSW 5 9 1022.8 - 0.0 - - - - - - -
20/09:30am 15.2 SW 5 11 1022.9 - 0.0 - - - - - - -
20/09:00am 13.9 WSW 7 11 1022.8 - 0.0 - - - - - - -
20/08:30am 13.3 WSW 7 13 1022.6 - 0.0 - - - - - - -
20/08:00am 12.3 W 5 9 1022.7 - 0.0 - - - - - - -
20/07:30am 11.0 W 6 9 1022.2 - 0.0 - - - - - - -
20/07:00am 9.7 W 5 8 1022.0 - 0.0 - - - - - - -
20/06:30am 9.2 W 7 11 1021.5 - 0.0 - - - - - - -
20/06:00am 8.9 W 6 8 1021.4 - 0.0 - - - - - - -
20/05:30am 8.5 W 5 7 1020.8 - 0.0 - - - - - - -
20/05:00am 8.7 WSW 6 8 1020.3 - 0.0 - - - - - - -
20/04:30am 8.9 W 4 6 1020.0 - 0.0 - - - - - - -
20/04:00am 9.4 W 7 11 1019.4 - 0.0 - - - - - - -
20/03:30am 9.1 W 6 9 1018.9 - 0.0 - - - - - - -
20/03:00am 8.3 W 6 8 1019.0 - 0.0 - - - - - - -
20/02:30am 8.7 WSW 5 7 1018.7 - 0.0 - - - - - - -
20/02:00am 9.5 WSW 7 10 1018.8 - 0.0 - - - - - - -
20/01:30am 9.4 SW 7 10 1018.9 - 0.0 - - - - - - -
20/01:00am 9.7 SW 7 12 1019.0 - 0.0 - - - - - - -
20/12:30am 9.9 SW 8 13 1018.5 - 0.0 - - - - - - -
20/12:00am 10.3 WSW 6 11 1018.7 - 0.0 - - - - - - -
 
Date/Time
EST
Temp

°C
Wind Pressure Rain
since 9am
mm
Weather Cloud Vis
km
Sea
Height
m
Swell
Dir
 
Speed
knots
Gust
knots
hPa Trend Height
m
Period
s
Dir
19/11:30pm 10.5 SW 8 13 1018.5 - 0.0 - - - - - - -
19/11:00pm 10.9 WSW 10 16 1018.2 - 0.0 - - - - - - -
19/10:30pm 11.1 WSW 10 17 1018.0 - 0.0 - - - - - - -
19/10:00pm 11.1 WSW 10 15 1017.9 - 0.0 - - - - - - -
19/09:30pm 11.3 SW 11 16 1017.8 - 0.0 - - - - - - -
19/09:00pm 11.4 SW 10 17 1017.4 - 0.0 - - - - - - -
19/08:30pm 11.4 WSW 10 15 1017.0 - 0.0 - - - - - - -
19/08:00pm 11.8 WSW 10 15 1016.9 - 0.0 - - - - - - -
19/07:30pm 12.2 WSW 11 18 1016.7 - 0.0 - - - - - - -
19/07:00pm 12.7 WSW 12 20 1016.4 - 0.0 - - - - - - -
19/06:30pm 13.0 WSW 12 18 1016.1 - 0.0 - - - - - - -
19/06:00pm 13.6 WSW 13 24 1015.8 - 0.0 - - - - - - -
19/05:30pm 13.9 WSW 11 19 1015.5 - 0.0 - - - - - - -
19/05:00pm 14.4 WSW 13 25 1014.9 - 0.0 - - - - - - -
19/04:30pm 15.6 WSW 11 19 1014.4 - 0.0 - - - - - - -
19/04:00pm 16.1 WSW 14 25 1014.0 - 0.0 - - - - - - -
19/03:30pm 16.7 WSW 12 19 1014.0 - 0.0 - - - - - - -
19/03:00pm 17.0 WSW 13 23 1013.8 - 0.0 - - - - - - -
19/02:30pm 17.5 WSW 13 23 1013.7 - 0.0 - - - - - - -
19/02:00pm 17.2 WSW 12 20 1013.9 - 0.0 - - - - - - -
19/01:30pm 17.2 WSW 12 20 1014.0 - 0.0 - - - - - - -
19/01:00pm 16.5 WSW 13 21 1014.0 - 0.0 - - - - - - -
19/12:46pm 16.9 WSW 15 26 1014.0 - 0.0 - - - - - - -
19/12:30pm 16.6 WSW 13 22 1014.2 - 0.0 - - - - - - -
19/12:00pm 16.9 WSW 12 19 1014.3 - 0.0 - - - - - - -
19/11:30am 15.2 W 11 18 1014.6 - 0.0 - - - - - - -
19/11:00am 14.7 WSW 9 18 1014.8 - 0.0 - - - - - - -
19/10:30am 14.4 SW 11 20 1014.6 - 0.0 - - - - - - -
19/10:00am 13.9 WSW 9 16 1014.8 - 0.0 - - - - - - -
19/09:30am 13.5 WSW 10 17 1014.8 - 0.0 - - - - - - -
19/09:00am 13.3 WSW 10 17 1014.8 - 0.0 - - - - - - -
19/08:30am 12.7 WSW 10 19 1014.6 - 0.0 - - - - - - -
19/08:00am 12.8 WSW 12 18 1014.5 - 0.0 - - - - - - -
19/07:30am 11.8 W 6 11 1014.4 - 0.0 - - - - - - -
19/07:00am 10.2 W 6 12 1014.1 - 0.0 - - - - - - -
19/06:30am 9.9 W 6 13 1013.8 - 0.0 - - - - - - -
19/06:00am 9.4 W 7 10 1013.5 - 0.0 - - - - - - -
19/05:30am 9.7 W 8 13 1013.1 - 0.0 - - - - - - -
19/05:00am 9.8 W 8 13 1012.8 - 0.0 - - - - - - -
19/04:30am 10.0 W 7 10 1012.7 - 0.0 - - - - - - -
19/04:00am 9.6 W 6 11 1012.6 - 0.0 - - - - - - -
19/03:30am 8.9 W 7 10 1012.5 - 0.0 - - - - - - -
19/03:00am 8.6 W 4 8 1012.7 - 0.0 - - - - - - -
19/02:30am 8.8 W 6 9 1012.8 - 0.0 - - - - - - -
19/02:00am 9.1 W 5 8 1013.2 - 0.0 - - - - - - -
19/01:30am 8.2 W 5 8 1013.8 - 0.0 - - - - - - -
19/01:00am 8.3 W 6 9 1013.8 - 0.0 - - - - - - -
19/12:30am 8.1 W 6 10 1014.1 - 0.0 - - - - - - -
19/12:00am 7.6 NW 3 5 1014.4 - 0.0 - - - - - - -
 
Date/Time
EST
Temp

°C
Wind Pressure Rain
since 9am
mm
Weather Cloud Vis
km
Sea
Height
m
Swell
Dir
 
Speed
knots
Gust
knots
hPa Trend Height
m
Period
s
Dir
18/11:30pm 7.8 W 5 8 1014.9 - 0.0 - - - - - - -
18/11:00pm 8.0 W 5 7 1015.0 - 0.0 - - - - - - -
18/10:30pm 8.8 W 6 11 1015.1 - 0.0 - - - - - - -
18/10:00pm 8.7 W 4 6 1015.3 - 0.0 - - - - - - -
18/09:30pm 9.2 WSW 5 10 1015.4 - 0.0 - - - - - - -
18/09:00pm 9.6 WSW 7 12 1015.5 - 0.0 - - - - - - -
18/08:30pm 9.7 W 7 10 1015.5 - 0.0 - - - - - - -
18/08:00pm 9.8 W 6 11 1015.5 - 0.0 - - - - - - -
18/07:30pm 10.1 W 8 13 1015.4 - 0.0 - - - - - - -
18/07:00pm 10.5 W 7 11 1015.1 - 0.0 - - - - - - -
18/06:30pm 10.7 WSW 9 17 1014.8 - 0.0 - - - - - - -
18/06:00pm 10.5 WSW 7 13 1014.6 - 0.0 - - - - - - -
18/05:30pm 10.8 WSW 12 19 1014.2 - 0.0 - - - - - - -
18/05:00pm 11.4 WSW 13 22 1013.8 - 0.0 - - - - - - -
18/04:30pm 11.9 SSW 8 14 1013.7 - 0.0 - - - - - - -
18/04:00pm 12.9 SSW 14 21 1013.6 - 0.0 - - - - - - -
18/03:30pm 12.4 SSW 13 20 1013.4 - 0.0 - - - - - - -
18/03:00pm 13.2 SW 13 27 1012.9 - 0.0 - - - - - - -
18/02:42pm 13.2 WSW 15 29 1012.6 - 0.0 - - - - - - -
18/02:30pm 13.5 WSW 11 18 1012.7 - 0.0 - - - - - - -
18/02:00pm 13.4 WSW 11 18 1012.7 - 0.0 - - - - - - -
18/01:30pm 15.3 WSW 11 20 1013.0 - 0.0 - - - - - - -
18/01:00pm 14.1 WSW 11 18 1013.2 - 0.0 - - - - - - -
18/12:30pm 14.2 SSW 7 17 1013.5 - 0.0 - - - - - - -

Other Formats:

Comma delimited format used in spreadsheet applications
http://www.bom.gov.au/fwo/IDT60701/IDT60701.94987.axf

JavaScript Object Notation format (JSON) in row-major order
http://www.bom.gov.au/fwo/IDT60701/IDT60701.94987.json